Time;durP1;ratioP1;P1;durP2;ratioP2;P2;SDS_P1;SDS_P2;PMS_P1;PMS_P2;Temp;Humidity;BMP_temperature;BMP_pressure;BME280_temperature;BME280_humidity;BME280_pressure;Samples;Min_cycle;Max_cycle;Signal;HPM_P1;HPM_P2
2023/08/22 00:00:28;;;;;;;;;;;18.00;99.90;;;;;;4979256;28;92279;-35
2023/08/22 00:02:55;;;;;;;7.47;3.58;;;17.90;99.90;;;;;;4995935;28;94998;-33
2023/08/22 00:05:22;;;;;;;3.60;3.20;;;17.90;99.90;;;;;;4982367;28;94737;-36
2023/08/22 00:07:48;;;;;;;5.60;2.75;;;17.90;99.90;;;;;;4976490;28;94885;-34
2023/08/22 00:10:14;;;;;;;4.38;3.90;;;17.80;99.90;;;;;;4976596;28;94110;-35
2023/08/22 00:12:40;;;;;;;6.35;3.60;;;17.80;99.90;;;;;;4978127;28;95788;-34
2023/08/22 00:15:09;;;;;;;5.85;4.38;;;17.80;99.90;;;;;;4978265;28;94554;-33
2023/08/22 00:17:39;;;;;;;7.15;4.00;;;17.60;99.90;;;;;;4992417;28;94368;-34
2023/08/22 00:20:07;;;;;;;4.60;4.20;;;17.50;99.90;;;;;;4992388;28;94695;-39
2023/08/22 00:22:34;;;;;;;7.38;5.13;;;17.40;99.90;;;;;;4988460;28;95533;-34
2023/08/22 00:25:00;;;;;;;4.65;4.20;;;17.40;99.90;;;;;;4995554;28;93907;-32
2023/08/22 00:27:26;;;;;;;4.53;4.13;;;17.40;99.90;;;;;;4979413;28;92996;-36
2023/08/22 00:29:52;;;;;;;5.53;4.60;;;17.40;99.90;;;;;;4980355;28;93833;-32
2023/08/22 00:32:17;;;;;;;5.90;4.43;;;17.40;99.90;;;;;;4979398;28;94803;-33
2023/08/22 00:34:43;;;;;;;4.20;3.80;;;17.40;99.90;;;;;;4979953;28;94730;-32
2023/08/22 00:37:09;;;;;;;13.98;6.35;;;17.50;99.90;;;;;;4989579;28;92850;-33
2023/08/22 00:39:34;;;;;;;12.75;6.82;;;17.50;99.90;;;;;;4983178;28;92218;-32
2023/08/22 00:42:00;;;;;;;9.73;8.15;;;17.50;99.90;;;;;;4979335;28;95928;-33
2023/08/22 00:44:25;;;;;;;9.85;7.25;;;17.60;99.90;;;;;;4979434;28;95361;-34
2023/08/22 00:46:51;;;;;;;7.55;6.75;;;17.60;99.90;;;;;;4979599;28;93328;-32
2023/08/22 00:49:17;;;;;;;11.25;6.43;;;17.60;99.90;;;;;;4979412;28;94441;-34
2023/08/22 00:51:43;;;;;;;7.65;5.40;;;17.60;99.90;;;;;;4989074;28;94816;-32
2023/08/22 00:54:10;;;;;;;12.27;6.40;;;17.60;99.90;;;;;;4985206;28;94650;-34
2023/08/22 00:56:36;;;;;;;8.00;5.38;;;17.70;99.90;;;;;;4998674;28;94078;-35
2023/08/22 00:59:04;;;;;;;7.90;5.25;;;17.70;99.90;;;;;;4998358;28;94362;-37
2023/08/22 01:01:30;;;;;;;5.60;4.90;;;17.60;99.90;;;;;;4997899;28;94467;-34
2023/08/22 01:03:56;;;;;;;7.70;4.43;;;17.70;99.90;;;;;;4983619;28;94209;-31
2023/08/22 01:06:38;;;;;;;4.85;3.70;;;17.70;99.90;;;;;;4977662;28;95549;-38
2023/08/22 01:09:18;;;;;;;9.68;3.90;;;17.70;99.90;;;;;;4978466;28;94544;-32
2023/08/22 01:11:47;;;;;;;11.32;3.20;;;17.70;99.90;;;;;;4978333;28;95454;-33
2023/08/22 01:14:19;;;;;;;5.72;3.05;;;17.60;99.90;;;;;;4996391;28;94498;-33
2023/08/22 01:16:46;;;;;;;4.50;3.42;;;17.70;99.90;;;;;;4997489;28;93317;-33
2023/08/22 01:19:13;;;;;;;4.95;3.08;;;17.70;99.90;;;;;;4998184;28;93725;-34
2023/08/22 01:21:51;;;;;;;4.32;2.85;;;17.70;99.90;;;;;;4983892;28;95183;-33
2023/08/22 01:24:18;;;;;;;2.80;2.60;;;17.90;99.90;;;;;;4986224;28;95065;-35
2023/08/22 01:26:46;;;;;;;7.95;3.42;;;17.70;99.90;;;;;;4991982;28;93130;-33
2023/08/22 01:29:16;;;;;;;;;;;17.70;99.90;;;;;;4979192;28;94941;-32
2023/08/22 01:31:41;;;;;;;5.05;3.30;;;18.20;99.90;;;;;;4979702;28;95825;-32
2023/08/22 01:34:22;;;;;;;6.95;3.50;;;17.80;99.90;;;;;;4978051;28;95250;-38
2023/08/22 01:36:51;;;;;;;2.70;2.35;;;17.70;99.90;;;;;;4990430;28;94844;-35
2023/08/22 01:39:19;;;;;;;5.32;2.63;;;17.80;99.90;;;;;;4978635;28;94016;-32
2023/08/22 01:41:46;;;;;;;4.85;3.65;;;17.80;99.90;;;;;;4978706;28;94746;-37
2023/08/22 01:44:12;;;;;;;2.97;2.65;;;17.80;99.90;;;;;;4979765;28;95255;-35
2023/08/22 01:46:38;;;;;;;4.60;3.17;;;17.80;99.90;;;;;;4980130;28;94058;-31
2023/08/22 01:49:03;;;;;;;5.68;3.38;;;17.80;99.90;;;;;;4992817;28;94020;-37
2023/08/22 01:51:29;;;;;;;4.03;2.97;;;17.80;99.90;;;;;;4979462;28;95020;-33
2023/08/22 01:53:55;;;;;;;3.47;2.90;;;17.80;99.90;;;;;;4981025;28;94433;-32
2023/08/22 01:56:20;;;;;;;7.63;3.90;;;17.80;99.90;;;;;;4961542;28;93193;-36
2023/08/22 01:58:46;;;;;;;4.45;2.90;;;17.80;99.90;;;;;;4980708;28;94237;-32
2023/08/22 02:01:12;;;;;;;3.90;3.10;;;17.80;99.90;;;;;;4984022;28;94719;-37
2023/08/22 02:03:42;;;;;;;3.30;2.70;;;17.70;99.90;;;;;;4997660;28;96296;-33
2023/08/22 02:06:08;;;;;;;4.65;2.50;;;17.70;99.90;;;;;;4977338;28;94391;-33
2023/08/22 02:08:33;;;;;;;5.22;3.35;;;17.70;99.90;;;;;;4995789;28;92906;-37
2023/08/22 02:10:59;;;;;;;6.20;3.35;;;17.70;99.90;;;;;;4994533;28;94594;-32
2023/08/22 02:13:25;;;;;;;9.63;4.15;;;17.70;99.90;;;;;;4995882;28;94669;-32
2023/08/22 02:15:51;;;;;;;5.95;4.20;;;17.60;99.90;;;;;;4995247;28;92671;-32
2023/08/22 02:18:16;;;;;;;3.88;3.13;;;17.60;99.90;;;;;;4995241;28;93687;-35
2023/08/22 02:20:43;;;;;;;7.15;3.15;;;17.70;99.90;;;;;;4996256;28;96797;-33
2023/08/22 02:23:09;;;;;;;6.38;3.33;;;17.70;99.90;;;;;;4994953;28;95586;-33
2023/08/22 02:25:35;;;;;;;4.47;3.30;;;17.70;99.90;;;;;;4977241;28;92187;-35
2023/08/22 02:28:02;;;;;;;4.28;3.45;;;17.70;99.90;;;;;;4992090;28;92215;-32
2023/08/22 02:30:27;;;;;;;4.30;3.90;;;17.70;99.90;;;;;;4996863;28;94776;-30
2023/08/22 02:32:53;;;;;;;11.55;3.92;;;17.70;99.90;;;;;;4995121;28;94401;-33
2023/08/22 02:35:19;;;;;;;4.30;3.55;;;17.70;99.90;;;;;;4995898;28;93273;-34
2023/08/22 02:37:45;;;;;;;4.65;3.50;;;17.70;99.90;;;;;;4994942;28;92333;-32
2023/08/22 02:40:11;;;;;;;4.93;3.25;;;17.70;99.90;;;;;;4995090;28;94851;-33
2023/08/22 02:42:38;;;;;;;4.60;2.55;;;17.60;99.90;;;;;;4992214;28;94512;-32
2023/08/22 02:45:07;;;;;;;3.15;2.83;;;17.60;99.90;;;;;;4982909;28;93974;-31
2023/08/22 02:47:33;;;;;;;5.53;3.30;;;17.60;99.90;;;;;;4993607;28;93906;-32
2023/08/22 02:49:58;;;;;;;7.15;3.70;;;17.60;99.90;;;;;;4996422;28;94571;-39
2023/08/22 02:52:24;;;;;;;6.00;3.42;;;17.60;99.90;;;;;;4991549;28;93972;-34
2023/08/22 02:54:51;;;;;;;6.82;3.60;;;17.60;99.90;;;;;;4994430;28;94476;-33
2023/08/22 02:57:16;;;;;;;5.35;3.47;;;17.60;99.90;;;;;;4991704;28;94083;-32
2023/08/22 02:59:43;;;;;;;5.63;3.35;;;17.50;99.90;;;;;;4993907;28;95236;-31
2023/08/22 03:02:09;;;;;;;6.82;3.42;;;17.60;99.90;;;;;;4995783;28;94804;-33
2023/08/22 03:04:37;;;;;;;6.20;4.45;;;17.60;99.90;;;;;;4997704;28;92816;-32
2023/08/22 03:07:03;;;;;;;5.90;3.95;;;17.60;99.90;;;;;;4994785;28;92700;-32
2023/08/22 03:09:29;;;;;;;4.95;3.67;;;17.60;99.90;;;;;;4982164;28;95294;-35
2023/08/22 03:11:55;;;;;;;3.80;3.40;;;17.60;99.90;;;;;;4995378;28;94924;-31
2023/08/22 03:14:21;;;;;;;5.30;3.78;;;17.60;99.90;;;;;;4996022;28;94809;-33
2023/08/22 03:16:46;;;;;;;10.80;4.55;;;17.60;99.90;;;;;;4995002;28;93254;-38
2023/08/22 03:19:12;;;;;;;5.53;3.38;;;17.50;99.90;;;;;;4995941;28;94888;-32
2023/08/22 03:21:38;;;;;;;8.38;3.97;;;17.50;99.90;;;;;;4993613;28;94510;-36
2023/08/22 03:24:04;;;;;;;6.47;4.55;;;17.40;99.90;;;;;;4995644;28;94284;-32
2023/08/22 03:26:29;;;;;;;8.55;4.50;;;17.40;99.90;;;;;;4994901;28;91445;-37
2023/08/22 03:28:55;;;;;;;6.80;5.03;;;17.40;99.90;;;;;;4996082;28;94293;-33
2023/08/22 03:31:26;;;;;;;7.63;5.57;;;17.40;99.90;;;;;;4994097;28;95559;-35
2023/08/22 03:33:51;;;;;;;10.63;7.22;;;17.40;99.90;;;;;;4994981;28;95655;-33
2023/08/22 03:36:17;;;;;;;8.80;5.70;;;17.40;99.90;;;;;;4993483;28;94263;-35
2023/08/22 03:38:43;;;;;;;7.07;6.38;;;17.40;99.90;;;;;;4977215;28;94626;-31
2023/08/22 03:41:08;;;;;;;7.70;5.97;;;17.30;99.90;;;;;;4993378;28;94216;-37
2023/08/22 03:43:34;;;;;;;7.00;6.30;;;17.40;99.90;;;;;;4987121;28;93573;-33
2023/08/22 03:46:00;;;;;;;8.32;7.53;;;17.40;99.90;;;;;;4988669;28;92145;-34
2023/08/22 03:48:25;;;;;;;11.63;7.25;;;17.40;99.90;;;;;;4979885;28;94340;-37
2023/08/22 03:50:51;;;;;;;8.88;6.05;;;17.40;99.90;;;;;;4982040;28;95401;-32
2023/08/22 03:53:16;;;;;;;7.65;6.43;;;17.40;99.90;;;;;;4989105;28;94031;-33
2023/08/22 03:55:43;;;;;;;8.57;6.18;;;17.30;99.90;;;;;;4987792;28;94954;-36
2023/08/22 03:58:10;;;;;;;15.52;8.25;;;17.30;99.90;;;;;;4980493;28;97887;-35
2023/08/22 04:00:36;;;;;;;9.93;7.25;;;17.30;99.90;;;;;;4995117;28;95343;-33
2023/08/22 04:03:02;;;;;;;9.18;7.63;;;17.20;99.90;;;;;;4992503;28;93438;-37
2023/08/22 04:05:27;;;;;;;10.73;7.20;;;17.20;99.90;;;;;;4993106;28;93138;-35
2023/08/22 04:07:53;;;;;;;15.30;7.50;;;17.20;99.90;;;;;;4999643;28;95108;-33
2023/08/22 04:10:20;;;;;;;10.75;8.18;;;17.20;99.90;;;;;;4998605;28;94899;-34
2023/08/22 04:12:46;;;;;;;8.52;7.35;;;17.20;99.90;;;;;;4990686;28;92233;-34
2023/08/22 04:15:12;;;;;;;13.63;8.15;;;17.10;99.90;;;;;;4980216;28;92101;-32
2023/08/22 04:17:41;;;;;;;13.82;8.52;;;17.10;99.90;;;;;;4979578;28;95504;-33
2023/08/22 04:20:12;;;;;;;9.05;7.60;;;17.10;99.90;;;;;;4982204;28;94079;-36
2023/08/22 04:22:41;;;;;;;13.90;7.28;;;17.00;99.90;;;;;;4998624;28;93699;-35
2023/08/22 04:25:11;;;;;;;7.53;6.40;;;17.00;99.90;;;;;;4998032;28;92870;-33
2023/08/22 04:27:38;;;;;;;9.25;8.45;;;17.00;99.90;;;;;;4998160;28;96439;-33
2023/08/22 04:30:04;;;;;;;9.00;8.07;;;16.90;99.90;;;;;;4980860;28;94551;-33
2023/08/22 04:32:31;;;;;;;14.85;9.32;;;16.90;99.90;;;;;;4994570;28;93600;-33
2023/08/22 04:34:56;;;;;;;10.77;8.27;;;16.90;99.90;;;;;;4997376;28;94179;-35
2023/08/22 04:37:22;;;;;;;12.00;8.25;;;16.90;99.90;;;;;;4980524;28;94815;-38
2023/08/22 04:39:48;;;;;;;12.50;8.07;;;16.90;99.90;;;;;;4993496;28;94857;-31
2023/08/22 04:42:13;;;;;;;13.18;9.07;;;16.90;99.90;;;;;;4978749;28;94703;-34
2023/08/22 04:44:39;;;;;;;11.55;9.02;;;16.80;99.90;;;;;;4985104;28;93929;-32
2023/08/22 04:47:05;;;;;;;13.00;9.63;;;16.80;99.90;;;;;;4984911;28;96184;-36
2023/08/22 04:49:30;;;;;;;14.45;9.18;;;16.80;99.90;;;;;;4997662;28;96156;-35
2023/08/22 04:51:56;;;;;;;15.18;10.50;;;16.70;99.90;;;;;;4998775;28;95328;-31
2023/08/22 04:54:21;;;;;;;13.98;9.32;;;16.70;99.90;;;;;;4997217;28;92986;-36
2023/08/22 04:56:47;;;;;;;10.48;8.57;;;16.80;99.90;;;;;;4998440;28;93963;-32
2023/08/22 04:59:13;;;;;;;18.20;9.77;;;16.70;99.90;;;;;;4996257;28;96127;-31
2023/08/22 05:01:38;;;;;;;11.90;9.25;;;16.70;99.90;;;;;;4999200;28;95533;-36
2023/08/22 05:04:04;;;;;;;11.57;10.40;;;16.70;99.90;;;;;;4995362;28;92379;-36
2023/08/22 05:06:30;;;;;;;13.02;10.90;;;16.70;99.90;;;;;;4980996;28;94154;-34
2023/08/22 05:08:55;;;;;;;13.73;10.13;;;16.70;99.90;;;;;;4983914;28;95180;-33
2023/08/22 05:11:21;;;;;;;13.00;10.45;;;16.70;99.90;;;;;;4980206;28;95348;-35
2023/08/22 05:13:47;;;;;;;13.63;10.63;;;16.80;99.90;;;;;;4984774;28;93951;-34
2023/08/22 05:16:12;;;;;;;11.68;10.35;;;16.70;99.90;;;;;;4980284;28;94880;-35
2023/08/22 05:18:38;;;;;;;16.58;11.43;;;16.80;99.90;;;;;;4987876;28;94549;-31
2023/08/22 05:21:04;;;;;;;11.57;10.18;;;16.80;99.90;;;;;;4987085;28;93344;-32
2023/08/22 05:23:30;;;;;;;11.90;10.73;;;16.90;99.90;;;;;;4976287;28;94673;-38
2023/08/22 05:25:56;;;;;;;12.00;10.82;;;16.90;99.90;;;;;;4988876;28;94510;-31
2023/08/22 05:28:21;;;;;;;19.48;11.90;;;16.90;99.90;;;;;;4996562;28;95043;-34
2023/08/22 05:30:47;;;;;;;17.80;13.23;;;16.90;99.90;;;;;;4998591;28;93027;-33
2023/08/22 05:33:13;;;;;;;16.08;11.77;;;17.00;99.90;;;;;;4978740;28;92319;-35
2023/08/22 05:35:38;;;;;;;14.00;12.40;;;17.20;99.90;;;;;;4987419;28;95384;-33
2023/08/22 05:38:04;;;;;;;13.55;10.45;;;17.30;99.90;;;;;;4995789;28;95823;-32
2023/08/22 05:40:30;;;;;;;14.27;11.50;;;17.30;99.90;;;;;;4995761;28;93143;-33
2023/08/22 05:42:56;;;;;;;12.38;10.30;;;17.40;99.90;;;;;;4996082;28;93374;-32
2023/08/22 05:45:22;;;;;;;13.07;10.93;;;17.60;99.90;;;;;;4995283;28;95355;-35
2023/08/22 05:47:48;;;;;;;14.07;10.15;;;17.60;99.90;;;;;;4994587;28;94293;-36
2023/08/22 05:50:13;;;;;;;14.50;11.98;;;17.70;99.90;;;;;;4996084;28;93620;-36
2023/08/22 05:52:39;;;;;;;14.10;12.13;;;17.70;99.90;;;;;;4994180;28;91437;-31
2023/08/22 05:55:06;;;;;;;14.07;11.55;;;17.80;99.90;;;;;;4997292;28;94286;-35
2023/08/22 05:57:32;;;;;;;15.13;11.75;;;17.80;99.90;;;;;;4982662;28;96476;-33
2023/08/22 05:59:58;;;;;;;16.92;11.63;;;17.80;99.90;;;;;;4980923;28;93498;-35
2023/08/22 06:02:24;;;;;;;14.63;11.73;;;17.90;99.90;;;;;;4991080;28;93338;-34
2023/08/22 06:04:50;;;;;;;14.98;12.48;;;17.90;99.90;;;;;;4981320;28;94842;-35
2023/08/22 06:07:15;;;;;;;15.55;13.43;;;18.00;99.90;;;;;;4988322;28;94166;-35
2023/08/22 06:09:41;;;;;;;17.10;13.05;;;18.00;99.90;;;;;;4988992;28;93550;-33
2023/08/22 06:12:08;;;;;;;15.93;14.25;;;18.10;99.90;;;;;;4984251;28;94605;-31
2023/08/22 06:14:33;;;;;;;18.02;13.80;;;18.10;99.90;;;;;;4971439;28;94829;-37
2023/08/22 06:16:59;;;;;;;19.15;12.57;;;18.20;99.90;;;;;;4984352;28;94480;-34
2023/08/22 06:19:25;;;;;;;17.13;15.43;;;18.30;99.90;;;;;;4994278;28;93161;-35
2023/08/22 06:21:50;;;;;;;18.17;13.93;;;18.40;99.90;;;;;;4987974;28;93969;-34
2023/08/22 06:24:16;;;;;;;21.13;15.15;;;18.50;99.90;;;;;;4989842;28;95455;-34
2023/08/22 06:26:42;;;;;;;17.88;13.35;;;18.60;99.90;;;;;;4988871;28;95549;-36
2023/08/22 06:29:11;;;;;;;19.90;15.90;;;18.60;99.90;;;;;;4982318;28;93981;-33
2023/08/22 06:31:37;;;;;;;17.85;15.48;;;18.70;99.90;;;;;;4980249;28;93149;-35
2023/08/22 06:34:02;;;;;;;17.10;14.23;;;18.70;99.90;;;;;;4981749;28;94638;-33
2023/08/22 06:36:28;;;;;;;16.17;14.30;;;18.80;99.90;;;;;;4979875;28;94322;-34
2023/08/22 06:38:53;;;;;;;19.42;13.27;;;18.80;99.90;;;;;;4993879;28;92226;-35
2023/08/22 06:41:19;;;;;;;16.85;12.68;;;18.90;99.90;;;;;;4988415;28;92417;-32
2023/08/22 06:43:46;;;;;;;15.90;12.95;;;18.90;99.90;;;;;;4985993;28;94790;-37
2023/08/22 06:46:12;;;;;;;15.60;14.02;;;18.90;99.90;;;;;;4984091;28;94900;-35
2023/08/22 06:48:37;;;;;;;13.13;11.82;;;18.90;99.90;;;;;;4985702;28;93903;-33
2023/08/22 06:51:03;;;;;;;15.77;12.85;;;19.00;99.90;;;;;;4984741;28;93327;-33
2023/08/22 06:53:28;;;;;;;16.35;11.85;;;19.10;99.90;;;;;;4985912;28;95705;-33
2023/08/22 06:55:55;;;;;;;15.18;12.63;;;19.30;99.90;;;;;;4983891;28;94336;-34
2023/08/22 06:58:21;;;;;;;13.48;11.75;;;19.30;99.90;;;;;;4986620;28;92589;-36
2023/08/22 07:00:46;;;;;;;17.98;12.93;;;19.40;99.90;;;;;;4974887;28;93402;-38
2023/08/22 07:03:12;;;;;;;15.80;12.00;;;19.50;99.90;;;;;;4984082;28;94881;-33
2023/08/22 07:05:38;;;;;;;17.75;12.85;;;19.70;99.90;;;;;;4975167;28;94783;-34
2023/08/22 07:08:04;;;;;;;16.73;10.40;;;20.00;99.90;;;;;;4975971;28;93085;-32
2023/08/22 07:10:30;;;;;;;12.35;10.50;;;20.20;99.90;;;;;;4957558;28;94332;-34
2023/08/22 07:12:55;;;;;;;13.52;11.02;;;20.40;99.90;;;;;;4973624;28;95126;-32
2023/08/22 07:15:21;;;;;;;10.65;9.52;;;20.40;99.90;;;;;;4988070;28;95079;-34
2023/08/22 07:17:47;;;;;;;15.02;11.65;;;20.60;99.90;;;;;;4993562;28;93387;-34
2023/08/22 07:20:13;;;;;;;13.90;12.50;;;21.00;99.90;;;;;;4991728;28;94393;-35
2023/08/22 07:22:38;;;;;;;10.30;9.27;;;21.10;99.90;;;;;;4992275;28;94982;-32
2023/08/22 07:25:05;;;;;;;14.18;10.27;;;21.60;99.90;;;;;;4974096;28;94741;-33
2023/08/22 07:27:30;;;;;;;11.02;9.38;;;21.90;99.90;;;;;;4993780;28;94634;-35
2023/08/22 07:29:56;;;;;;;11.95;9.05;;;22.30;99.90;;;;;;4993148;28;92434;-35
2023/08/22 07:32:22;;;;;;;12.02;8.68;;;22.70;99.90;;;;;;4983364;28;94776;-33
2023/08/22 07:34:48;;;;;;;9.98;8.48;;;22.60;99.90;;;;;;4977669;28;95084;-34
2023/08/22 07:37:14;;;;;;;9.07;8.00;;;22.60;99.90;;;;;;4990132;28;94255;-35
2023/08/22 07:39:41;;;;;;;14.02;7.88;;;22.70;99.90;;;;;;4989271;28;92586;-34
2023/08/22 07:42:06;;;;;;;9.25;8.00;;;22.90;99.90;;;;;;4989990;28;93743;-33
2023/08/22 07:44:32;;;;;;;11.38;7.75;;;23.20;99.90;;;;;;4987342;28;94592;-34
2023/08/22 07:46:58;;;;;;;8.65;6.55;;;23.40;99.90;;;;;;4990788;28;94743;-31
2023/08/22 07:49:26;;;;;;;10.38;6.55;;;23.30;99.90;;;;;;4991565;28;93416;-31
2023/08/22 07:51:52;;;;;;;7.35;5.95;;;23.90;99.90;;;;;;4990420;28;95141;-34
2023/08/22 07:54:17;;;;;;;10.18;6.45;;;24.50;99.90;;;;;;4991893;28;95110;-35
2023/08/22 07:56:44;;;;;;;11.68;5.93;;;24.70;99.90;;;;;;4989916;28;93516;-36
2023/08/22 07:59:12;;;;;;;6.15;5.55;;;24.80;99.90;;;;;;4989667;28;92648;-32
2023/08/22 08:01:37;;;;;;;6.20;5.57;;;24.50;99.90;;;;;;4995311;28;95242;-32
2023/08/22 08:04:03;;;;;;;10.43;5.28;;;24.30;99.90;;;;;;4994905;28;95338;-33
2023/08/22 08:06:33;;;;;;;6.60;5.13;;;24.10;99.90;;;;;;4995774;28;94858;-37
2023/08/22 08:09:00;;;;;;;6.68;4.95;;;24.10;99.90;;;;;;4994415;28;93878;-36
2023/08/22 08:11:27;;;;;;;5.45;4.75;;;24.10;99.90;;;;;;4985604;28;94178;-34
2023/08/22 08:13:53;;;;;;;9.40;4.88;;;23.90;99.90;;;;;;4992556;28;94413;-35
2023/08/22 08:16:19;;;;;;;6.57;4.75;;;24.00;99.90;;;;;;4996228;28;93940;-34
2023/08/22 08:18:44;;;;;;;7.70;4.80;;;23.80;99.90;;;;;;4977214;28;93185;-31
2023/08/22 08:21:10;;;;;;;4.95;3.83;;;23.70;99.90;;;;;;4993351;28;94739;-33
2023/08/22 08:23:36;;;;;;;4.57;3.72;;;23.90;99.90;;;;;;5045256;22;94285;-34
2023/08/22 08:26:03;;;;;;;11.18;5.15;;;23.90;99.90;;;;;;4992553;28;93029;-33
2023/08/22 08:28:30;;;;;;;7.43;4.85;;;23.70;99.90;;;;;;4992488;28;93353;-34
2023/08/22 08:30:55;;;;;;;10.50;4.60;;;23.70;99.90;;;;;;4993589;28;94662;-31
2023/08/22 08:33:21;;;;;;;7.60;4.75;;;23.80;99.90;;;;;;4993872;28;94495;-34
2023/08/22 08:35:46;;;;;;;6.20;4.65;;;23.90;99.90;;;;;;4997066;28;93270;-33
2023/08/22 08:38:12;;;;;;;9.18;4.88;;;23.90;99.90;;;;;;4992152;28;94582;-33
2023/08/22 08:40:41;;;;;;;8.02;4.55;;;23.90;99.90;;;;;;4996244;28;95049;-35
2023/08/22 08:43:08;;;;;;;7.32;4.18;;;24.10;99.90;;;;;;4994385;28;94523;-35
2023/08/22 08:45:34;;;;;;;6.53;4.60;;;23.80;99.90;;;;;;4994603;28;94701;-32
2023/08/22 08:48:02;;;;;;;5.10;3.63;;;24.00;99.90;;;;;;4994130;28;93244;-31
2023/08/22 08:50:27;;;;;;;4.20;3.38;;;24.00;99.90;;;;;;4994895;28;95518;-37
2023/08/22 08:52:53;;;;;;;7.13;4.50;;;24.00;99.90;;;;;;4993359;28;95744;-33
2023/08/22 08:55:19;;;;;;;6.65;3.92;;;24.00;99.90;;;;;;4992849;28;94345;-32
2023/08/22 08:57:46;;;;;;;4.88;3.75;;;23.80;99.90;;;;;;4990869;28;93399;-35
2023/08/22 09:00:14;;;;;;;6.75;3.80;;;24.00;99.90;;;;;;4980000;28;94711;-32
2023/08/22 09:02:40;;;;;;;3.53;3.13;;;24.00;99.90;;;;;;4992019;28;94449;-32
2023/08/22 09:05:06;;;;;;;7.85;2.95;;;24.10;99.90;;;;;;4979692;28;93371;-31
2023/08/22 09:07:32;;;;;;;3.95;2.90;;;23.90;99.90;;;;;;4980230;28;93770;-31
2023/08/22 09:10:00;;;;;;;10.32;3.22;;;23.70;99.90;;;;;;4986689;28;95481;-31
2023/08/22 09:12:33;;;;;;;6.53;3.80;;;23.70;99.90;;;;;;4993610;28;96588;-36
2023/08/22 09:14:59;;;;;;;4.78;3.05;;;23.60;99.90;;;;;;4981516;28;94145;-36
2023/08/22 09:17:28;;;;;;;4.72;3.13;;;23.70;99.90;;;;;;4992876;28;94531;-38
2023/08/22 09:19:53;;;;;;;3.03;2.70;;;23.70;99.90;;;;;;4988792;28;94749;-32
2023/08/22 09:22:19;;;;;;;5.50;2.85;;;23.90;99.90;;;;;;4975605;28;95745;-33
2023/08/22 09:24:52;;;;;;;5.07;3.03;;;23.80;99.90;;;;;;4974857;28;96805;-34
2023/08/22 09:27:37;;;;;;;4.88;3.58;;;23.90;99.90;;;;;;4966546;28;94409;-34
2023/08/22 09:30:05;;;;;;;3.30;3.00;;;23.80;99.90;;;;;;4990172;28;94826;-31
2023/08/22 09:32:31;;;;;;;6.22;3.35;;;23.40;99.90;;;;;;4975988;28;94057;-36
2023/08/22 09:34:58;;;;;;;5.18;3.03;;;23.50;99.90;;;;;;4977623;28;93835;-35
2023/08/22 09:37:35;;;;;;;6.63;3.08;;;23.60;99.90;;;;;;4976177;28;94756;-34
2023/08/22 09:40:05;;;;;;;2.78;2.42;;;23.80;99.90;;;;;;4976205;28;95708;-36
2023/08/22 09:42:31;;;;;;;6.00;2.10;;;24.00;99.90;;;;;;4977592;28;95484;-33
2023/08/22 09:44:57;;;;;;;9.70;2.42;;;24.10;99.90;;;;;;4976280;28;93044;-35
2023/08/22 09:47:27;;;;;;;2.08;1.98;;;24.50;99.90;;;;;;4976972;28;95030;-33
2023/08/22 09:49:56;;;;;;;2.78;2.00;;;24.60;99.90;;;;;;4977005;28;94508;-33
2023/08/22 09:52:24;;;;;;;2.78;2.45;;;24.90;99.90;;;;;;4977062;28;94902;-32
2023/08/22 09:54:50;;;;;;;2.17;1.98;;;24.70;99.90;;;;;;4985336;28;92890;-35
2023/08/22 09:57:17;;;;;;;1.70;1.60;;;24.90;99.90;;;;;;4993726;28;92788;-36
2023/08/22 09:59:45;;;;;;;2.60;1.58;;;25.10;99.90;;;;;;4981989;28;94267;-35
2023/08/22 10:02:11;;;;;;;;;;;25.20;99.90;;;;;;4987470;28;94181;-35
2023/08/22 10:04:36;;;;;;;4.32;1.60;;;25.00;99.90;;;;;;4993137;28;94040;-33
2023/08/22 10:07:02;;;;;;;2.35;1.60;;;25.40;99.90;;;;;;4981375;28;94256;-34
2023/08/22 10:09:28;;;;;;;1.48;1.38;;;25.60;99.90;;;;;;4974989;28;94663;-36
2023/08/22 10:11:57;;;;;;;3.30;2.33;;;25.60;99.90;;;;;;4976008;28;94849;-34
2023/08/22 10:14:32;;;;;;;3.38;2.13;;;25.10;99.90;;;;;;4994487;28;93264;-32
2023/08/22 10:16:59;;;;;;;1.70;1.60;;;25.10;99.90;;;;;;4985182;28;93612;-34
2023/08/22 10:19:25;;;;;;;3.78;1.83;;;25.30;99.90;;;;;;4990067;28;94440;-32
2023/08/22 10:21:53;;;;;;;2.65;1.35;;;25.50;99.90;;;;;;4986440;28;94422;-35
2023/08/22 10:24:30;;;;;;;2.67;2.38;;;25.70;99.90;;;;;;4984036;28;92498;-34
2023/08/22 10:27:06;;;;;;;2.70;2.47;;;25.20;99.90;;;;;;4983890;28;93703;-36
2023/08/22 10:30:05;;;;;;;2.97;2.35;;;24.90;99.90;;;;;;4994223;28;96045;-34
2023/08/22 10:32:30;;;;;;;2.95;1.90;;;24.70;99.90;;;;;;4976481;28;95133;-37
2023/08/22 10:34:56;;;;;;;5.13;2.38;;;24.90;99.90;;;;;;4980267;28;93698;-35
2023/08/22 10:37:26;;;;;;;3.03;2.60;;;24.90;99.90;;;;;;4984965;28;93974;-35
2023/08/22 10:39:54;;;;;;;3.47;2.75;;;25.10;99.90;;;;;;4990678;28;94597;-32
2023/08/22 10:42:21;;;;;;;2.95;2.03;;;25.10;99.90;;;;;;4986540;28;94531;-33
2023/08/22 10:44:51;;;;;;;3.37;2.97;;;25.20;99.90;;;;;;4980921;28;93016;-35
2023/08/22 10:47:18;;;;;;;4.18;2.67;;;24.90;99.90;;;;;;4977038;28;92671;-35
2023/08/22 10:49:48;;;;;;;3.45;2.53;;;24.60;99.90;;;;;;4987172;28;94765;-34
2023/08/22 10:52:14;;;;;;;3.92;2.05;;;24.50;99.90;;;;;;4977337;28;94531;-33
2023/08/22 10:55:13;;;;;;;4.93;2.97;;;24.60;99.90;;;;;;4982502;28;94886;-37
2023/08/22 10:57:44;;;;;;;2.90;2.13;;;24.50;99.90;;;;;;4978209;28;92880;-35
2023/08/22 11:00:19;;;;;;;5.35;2.70;;;24.50;99.90;;;;;;4976672;28;95502;-34
2023/08/22 11:02:48;;;;;;;4.82;2.88;;;24.50;99.90;;;;;;4986777;28;94435;-35
2023/08/22 11:05:14;;;;;;;3.15;2.88;;;24.30;99.90;;;;;;4978550;28;92291;-36
2023/08/22 11:07:42;;;;;;;2.58;2.22;;;24.30;99.90;;;;;;4977964;28;94609;-37
2023/08/22 11:10:11;;;;;;;4.93;3.05;;;24.20;99.90;;;;;;4985358;28;93308;-33
2023/08/22 11:12:37;;;;;;;9.27;3.30;;;24.30;99.90;;;;;;4976624;28;94220;-33
2023/08/22 11:15:03;;;;;;;4.80;2.13;;;24.30;99.90;;;;;;4985256;28;92611;-36
2023/08/22 11:17:29;;;;;;;3.70;1.92;;;24.50;99.90;;;;;;4982894;28;94641;-33
2023/08/22 11:19:57;;;;;;;10.95;1.92;;;24.50;99.90;;;;;;4991412;28;95789;-36
2023/08/22 11:22:23;;;;;;;3.78;1.25;;;24.70;99.90;;;;;;4974601;28;95557;-38
2023/08/22 11:24:50;;;;;;;1.30;1.20;;;24.90;99.90;;;;;;4988153;28;94081;-35
2023/08/22 11:27:17;;;;;;;1.52;1.42;;;24.90;99.90;;;;;;4974148;28;93047;-33
2023/08/22 11:29:49;;;;;;;4.23;1.30;;;24.80;99.90;;;;;;4975911;28;95105;-33
2023/08/22 11:32:25;;;;;;;0.80;0.80;;;24.70;99.90;;;;;;4973870;28;94653;-36
2023/08/22 11:34:53;;;;;;;2.42;1.50;;;24.80;99.90;;;;;;4976403;28;94700;-37
2023/08/22 11:37:19;;;;;;;1.98;1.20;;;24.90;99.90;;;;;;4975235;28;92488;-33
2023/08/22 11:39:52;;;;;;;2.78;1.38;;;24.80;99.90;;;;;;4975346;28;95277;-36
2023/08/22 11:42:19;;;;;;;1.40;1.30;;;25.00;99.90;;;;;;4975590;28;94686;-34
2023/08/22 11:45:03;;;;;;;8.68;1.73;;;25.10;99.90;;;;;;4987977;28;95325;-33
2023/08/22 11:47:38;;;;;;;1.35;1.10;;;25.10;99.90;;;;;;4984904;28;94860;-33
2023/08/22 11:50:05;;;;;;;3.00;1.90;;;25.10;99.90;;;;;;4965214;28;94443;-33
2023/08/22 11:52:31;;;;;;;2.03;1.60;;;25.00;99.90;;;;;;4982265;28;95453;-36
2023/08/22 11:55:07;;;;;;;3.38;1.80;;;25.10;99.90;;;;;;4964279;28;94812;-38
2023/08/22 11:57:39;;;;;;;2.13;1.92;;;25.20;99.90;;;;;;4980875;28;93919;-35
2023/08/22 12:00:08;;;;;;;2.05;1.60;;;24.90;99.90;;;;;;4983299;28;94287;-34
2023/08/22 12:02:35;;;;;;;2.15;1.42;;;24.90;99.90;;;;;;4975456;28;94046;-35
2023/08/22 12:05:01;;;;;;;1.50;1.40;;;25.00;99.90;;;;;;4976982;28;94650;-32
2023/08/22 12:07:27;;;;;;;3.95;1.40;;;25.20;99.90;;;;;;4981235;28;93703;-36
2023/08/22 12:10:03;;;;;;;1.50;1.40;;;25.20;99.90;;;;;;4980437;28;95511;-33
2023/08/22 12:12:30;;;;;;;1.75;1.02;;;25.00;99.30;;;;;;4983546;28;95094;-36
2023/08/22 12:14:56;;;;;;;1.95;1.15;;;25.00;99.90;;;;;;4980651;28;95391;-35
2023/08/22 12:17:22;;;;;;;2.75;1.13;;;25.00;99.90;;;;;;4986237;28;94160;-34
2023/08/22 12:19:48;;;;;;;1.65;1.10;;;24.90;99.90;;;;;;4994795;28;96429;-32
2023/08/22 12:22:14;;;;;;;2.08;1.08;;;25.00;99.90;;;;;;4989550;28;93938;-30
2023/08/22 12:24:43;;;;;;;1.40;1.30;;;25.00;99.90;;;;;;4983890;28;92195;-32
2023/08/22 12:27:08;;;;;;;1.52;1.42;;;25.00;97.70;;;;;;4989949;28;93474;-35
2023/08/22 12:29:34;;;;;;;1.95;1.50;;;25.00;99.90;;;;;;4984023;28;94875;-36
2023/08/22 12:32:00;;;;;;;2.70;0.88;;;25.10;99.90;;;;;;4995678;28;94576;-32
2023/08/22 12:34:25;;;;;;;5.03;0.93;;;25.40;99.90;;;;;;4983811;28;94979;-33
2023/08/22 12:36:51;;;;;;;1.00;0.90;;;25.40;99.90;;;;;;4989621;28;94016;-38
2023/08/22 12:39:17;;;;;;;1.88;0.80;;;25.50;99.90;;;;;;4983852;28;94814;-32
2023/08/22 12:41:43;;;;;;;4.85;1.00;;;25.60;99.90;;;;;;4988632;28;93872;-37